sensor_id;sensor_type;location;lat;lon;timestamp;pressure;altitude;pressure_sealevel;temperature;humidity
30744;BME280;17486;46.738;7.622;2022-07-18T00:01:29;95878.81;;;24.43;40.57
30744;BME280;17486;46.738;7.622;2022-07-18T00:03:55;95886.66;;;24.35;40.79
30744;BME280;17486;46.738;7.622;2022-07-18T00:06:21;95880.66;;;24.33;40.92
30744;BME280;17486;46.738;7.622;2022-07-18T00:08:46;95882.91;;;24.28;40.79
30744;BME280;17486;46.738;7.622;2022-07-18T00:11:12;95882.38;;;24.24;40.89
30744;BME280;17486;46.738;7.622;2022-07-18T00:13:37;95883.66;;;24.20;41.15
30744;BME280;17486;46.738;7.622;2022-07-18T00:16:03;95841.06;;;23.92;41.13
30744;BME280;17486;46.738;7.622;2022-07-18T00:18:28;95850.44;;;23.96;41.20
30744;BME280;17486;46.738;7.622;2022-07-18T00:20:54;95886.75;;;24.06;41.33
30744;BME280;17486;46.738;7.622;2022-07-18T00:23:19;95885.78;;;23.97;41.79
30744;BME280;17486;46.738;7.622;2022-07-18T00:25:45;95839.69;;;23.68;41.82
30744;BME280;17486;46.738;7.622;2022-07-18T00:28:10;95887.78;;;23.95;41.93
30744;BME280;17486;46.738;7.622;2022-07-18T00:30:38;95875.03;;;23.89;42.03
30744;BME280;17486;46.738;7.622;2022-07-18T00:33:03;95881.59;;;23.94;42.00
30744;BME280;17486;46.738;7.622;2022-07-18T00:35:28;95858.41;;;23.77;42.05
30744;BME280;17486;46.738;7.622;2022-07-18T00:37:54;95886.66;;;23.97;42.04
30744;BME280;17486;46.738;7.622;2022-07-18T00:40:20;95894.22;;;23.92;41.96
30744;BME280;17486;46.738;7.622;2022-07-18T00:42:45;95889.44;;;23.96;41.98
30744;BME280;17486;46.738;7.622;2022-07-18T00:45:11;95860.34;;;23.75;42.06
30744;BME280;17486;46.738;7.622;2022-07-18T00:47:36;95855.50;;;23.70;42.12
30744;BME280;17486;46.738;7.622;2022-07-18T00:50:02;95855.91;;;23.65;42.14
30744;BME280;17486;46.738;7.622;2022-07-18T00:52:30;95897.00;;;23.81;42.11
30744;BME280;17486;46.738;7.622;2022-07-18T00:54:56;95891.97;;;23.78;42.37
30744;BME280;17486;46.738;7.622;2022-07-18T00:57:21;95885.81;;;23.67;42.51
30744;BME280;17486;46.738;7.622;2022-07-18T00:59:48;95867.09;;;23.49;42.60
30744;BME280;17486;46.738;7.622;2022-07-18T01:02:32;95893.66;;;23.69;42.36
30744;BME280;17486;46.738;7.622;2022-07-18T01:04:58;95866.97;;;23.41;42.57
30744;BME280;17486;46.738;7.622;2022-07-18T01:07:23;95899.97;;;23.58;42.54
30744;BME280;17486;46.738;7.622;2022-07-18T01:09:49;95902.19;;;23.53;42.71
30744;BME280;17486;46.738;7.622;2022-07-18T01:12:15;95896.72;;;23.45;42.68
30744;BME280;17486;46.738;7.622;2022-07-18T01:14:41;95892.97;;;23.38;42.70
30744;BME280;17486;46.738;7.622;2022-07-18T01:17:18;95860.94;;;23.10;42.87
30744;BME280;17486;46.738;7.622;2022-07-18T01:19:44;95869.72;;;23.10;42.98
30744;BME280;17486;46.738;7.622;2022-07-18T01:22:11;95871.16;;;23.14;43.24
30744;BME280;17486;46.738;7.622;2022-07-18T01:24:38;95852.69;;;23.13;43.11
30744;BME280;17486;46.738;7.622;2022-07-18T01:27:04;95864.06;;;23.15;42.98
30744;BME280;17486;46.738;7.622;2022-07-18T01:29:30;95892.53;;;23.32;43.10
30744;BME280;17486;46.738;7.622;2022-07-18T01:31:55;95890.19;;;23.29;43.06
30744;BME280;17486;46.738;7.622;2022-07-18T01:34:22;95888.50;;;23.28;43.14
30744;BME280;17486;46.738;7.622;2022-07-18T01:36:48;95883.44;;;23.25;43.31
30744;BME280;17486;46.738;7.622;2022-07-18T01:39:13;95881.91;;;23.23;43.15
30744;BME280;17486;46.738;7.622;2022-07-18T01:41:38;95876.47;;;23.14;43.28
30744;BME280;17486;46.738;7.622;2022-07-18T01:44:06;95876.84;;;23.00;43.39
30744;BME280;17486;46.738;7.622;2022-07-18T01:46:31;95845.78;;;22.71;43.59
30744;BME280;17486;46.738;7.622;2022-07-18T01:48:57;95874.44;;;22.77;43.90
30744;BME280;17486;46.738;7.622;2022-07-18T01:51:22;95872.59;;;22.68;44.18
30744;BME280;17486;46.738;7.622;2022-07-18T01:53:54;95866.56;;;22.56;44.36
30744;BME280;17486;46.738;7.622;2022-07-18T01:56:23;95834.69;;;22.37;44.54
30744;BME280;17486;46.738;7.622;2022-07-18T01:58:49;95874.25;;;22.59;44.78
30744;BME280;17486;46.738;7.622;2022-07-18T02:01:14;95867.81;;;22.52;44.87
30744;BME280;17486;46.738;7.622;2022-07-18T02:03:39;95876.44;;;22.54;45.07
30744;BME280;17486;46.738;7.622;2022-07-18T02:06:05;95843.59;;;22.35;45.21
30744;BME280;17486;46.738;7.622;2022-07-18T02:08:30;95875.44;;;22.45;45.21
30744;BME280;17486;46.738;7.622;2022-07-18T02:10:56;95845.34;;;22.25;45.16
30744;BME280;17486;46.738;7.622;2022-07-18T02:13:21;95868.91;;;22.49;45.15
30744;BME280;17486;46.738;7.622;2022-07-18T02:15:47;95824.97;;;22.26;45.37
30744;BME280;17486;46.738;7.622;2022-07-18T02:18:12;95869.75;;;22.50;45.18
30744;BME280;17486;46.738;7.622;2022-07-18T02:20:38;95841.69;;;22.38;45.18
30744;BME280;17486;46.738;7.622;2022-07-18T02:23:04;95858.88;;;22.53;45.57
30744;BME280;17486;46.738;7.622;2022-07-18T02:25:30;95877.72;;;22.60;45.14
30744;BME280;17486;46.738;7.622;2022-07-18T02:27:55;95844.06;;;22.41;45.20
30744;BME280;17486;46.738;7.622;2022-07-18T02:30:21;95880.69;;;22.66;44.98
30744;BME280;17486;46.738;7.622;2022-07-18T02:32:47;95878.88;;;22.67;44.92
30744;BME280;17486;46.738;7.622;2022-07-18T02:35:12;95844.19;;;22.49;45.06
30744;BME280;17486;46.738;7.622;2022-07-18T02:37:38;95842.09;;;22.43;45.02
30744;BME280;17486;46.738;7.622;2022-07-18T02:40:09;95887.78;;;22.56;45.16
30744;BME280;17486;46.738;7.622;2022-07-18T02:42:35;95882.31;;;22.58;44.96
30744;BME280;17486;46.738;7.622;2022-07-18T02:45:01;95880.78;;;22.55;45.07
30744;BME280;17486;46.738;7.622;2022-07-18T02:47:26;95890.22;;;22.48;45.16
30744;BME280;17486;46.738;7.622;2022-07-18T02:49:52;95888.59;;;22.47;44.92
30744;BME280;17486;46.738;7.622;2022-07-18T02:52:17;95849.53;;;22.18;44.87
30744;BME280;17486;46.738;7.622;2022-07-18T02:54:43;95884.28;;;22.34;45.12
30744;BME280;17486;46.738;7.622;2022-07-18T02:57:08;95854.47;;;22.11;45.17
30744;BME280;17486;46.738;7.622;2022-07-18T02:59:34;95888.56;;;22.26;45.39
30744;BME280;17486;46.738;7.622;2022-07-18T03:02:00;95890.91;;;22.19;45.32
30744;BME280;17486;46.738;7.622;2022-07-18T03:04:26;95894.13;;;22.13;45.62
30744;BME280;17486;46.738;7.622;2022-07-18T03:06:51;95897.59;;;22.13;45.38
30744;BME280;17486;46.738;7.622;2022-07-18T03:09:17;95911.94;;;22.11;45.67
30744;BME280;17486;46.738;7.622;2022-07-18T03:11:43;95905.22;;;22.07;45.78
30744;BME280;17486;46.738;7.622;2022-07-18T03:14:09;95896.56;;;22.05;45.92
30744;BME280;17486;46.738;7.622;2022-07-18T03:16:34;95900.91;;;22.06;45.85
30744;BME280;17486;46.738;7.622;2022-07-18T03:19:00;95899.66;;;22.10;45.85
30744;BME280;17486;46.738;7.622;2022-07-18T03:21:26;95902.31;;;22.10;45.83
30744;BME280;17486;46.738;7.622;2022-07-18T03:23:51;95853.44;;;21.72;45.76
30744;BME280;17486;46.738;7.622;2022-07-18T03:26:17;95895.47;;;21.86;45.89
30744;BME280;17486;46.738;7.622;2022-07-18T03:28:42;95911.13;;;21.89;46.16
30744;BME280;17486;46.738;7.622;2022-07-18T03:31:08;95900.53;;;21.89;46.47
30744;BME280;17486;46.738;7.622;2022-07-18T03:33:33;95894.78;;;21.84;46.46
30744;BME280;17486;46.738;7.622;2022-07-18T03:35:59;95903.44;;;21.86;46.44
30744;BME280;17486;46.738;7.622;2022-07-18T03:38:24;95909.44;;;21.88;46.31
30744;BME280;17486;46.738;7.622;2022-07-18T03:40:49;95880.88;;;21.70;46.29
30744;BME280;17486;46.738;7.622;2022-07-18T03:43:15;95914.03;;;21.86;46.22
30744;BME280;17486;46.738;7.622;2022-07-18T03:45:40;95925.56;;;21.85;46.35
30744;BME280;17486;46.738;7.622;2022-07-18T03:48:06;95870.63;;;21.56;46.19
30744;BME280;17486;46.738;7.622;2022-07-18T03:50:31;95903.38;;;21.76;46.10
30744;BME280;17486;46.738;7.622;2022-07-18T03:52:57;95901.25;;;21.70;46.21
30744;BME280;17486;46.738;7.622;2022-07-18T03:55:23;95913.66;;;21.69;46.57
30744;BME280;17486;46.738;7.622;2022-07-18T03:57:48;95908.84;;;21.63;46.53
30744;BME280;17486;46.738;7.622;2022-07-18T04:00:14;95877.19;;;21.41;46.75
30744;BME280;17486;46.738;7.622;2022-07-18T04:02:46;95880.19;;;21.36;46.60
30744;BME280;17486;46.738;7.622;2022-07-18T04:05:13;95915.75;;;21.55;46.54
30744;BME280;17486;46.738;7.622;2022-07-18T04:07:39;95924.28;;;21.58;46.95
30744;BME280;17486;46.738;7.622;2022-07-18T04:10:07;95925.50;;;21.54;46.78
30744;BME280;17486;46.738;7.622;2022-07-18T04:12:33;95932.56;;;21.53;46.82
30744;BME280;17486;46.738;7.622;2022-07-18T04:14:58;95940.88;;;21.60;47.03
30744;BME280;17486;46.738;7.622;2022-07-18T04:17:24;95940.63;;;21.63;46.89
30744;BME280;17486;46.738;7.622;2022-07-18T04:19:50;95904.47;;;21.41;46.86
30744;BME280;17486;46.738;7.622;2022-07-18T04:22:15;95944.97;;;21.64;46.92
30744;BME280;17486;46.738;7.622;2022-07-18T04:24:41;95945.66;;;21.66;46.79
30744;BME280;17486;46.738;7.622;2022-07-18T04:27:06;95952.63;;;21.67;46.70
30744;BME280;17486;46.738;7.622;2022-07-18T04:29:31;95939.53;;;21.66;46.64
30744;BME280;17486;46.738;7.622;2022-07-18T04:31:58;95912.88;;;21.46;46.70
30744;BME280;17486;46.738;7.622;2022-07-18T04:34:23;95946.16;;;21.60;46.74
30744;BME280;17486;46.738;7.622;2022-07-18T04:36:49;95949.06;;;21.57;46.73
30744;BME280;17486;46.738;7.622;2022-07-18T04:39:14;95947.63;;;21.53;47.02
30744;BME280;17486;46.738;7.622;2022-07-18T04:41:42;95939.22;;;21.48;47.14
30744;BME280;17486;46.738;7.622;2022-07-18T04:44:07;95907.91;;;21.20;47.58
30744;BME280;17486;46.738;7.622;2022-07-18T04:46:33;95935.31;;;21.31;47.72
30744;BME280;17486;46.738;7.622;2022-07-18T04:48:58;95891.50;;;21.06;47.95
30744;BME280;17486;46.738;7.622;2022-07-18T04:51:23;95933.53;;;21.20;48.08
30744;BME280;17486;46.738;7.622;2022-07-18T04:53:49;95943.03;;;21.23;48.40
30744;BME280;17486;46.738;7.622;2022-07-18T04:56:14;95936.88;;;21.22;48.75
30744;BME280;17486;46.738;7.622;2022-07-18T04:58:40;95903.28;;;21.01;48.96
30744;BME280;17486;46.738;7.622;2022-07-18T05:01:05;95946.72;;;21.31;48.82
30744;BME280;17486;46.738;7.622;2022-07-18T05:03:30;95895.69;;;21.08;49.11
30744;BME280;17486;46.738;7.622;2022-07-18T05:05:56;95925.78;;;21.40;49.27
30744;BME280;17486;46.738;7.622;2022-07-18T05:08:21;95896.56;;;21.30;49.26
30744;BME280;17486;46.738;7.622;2022-07-18T05:10:46;95910.09;;;21.48;49.25
30744;BME280;17486;46.738;7.622;2022-07-18T05:13:13;95928.94;;;21.66;49.01
30744;BME280;17486;46.738;7.622;2022-07-18T05:15:38;95899.72;;;21.56;49.19
30744;BME280;17486;46.738;7.622;2022-07-18T05:18:03;95932.31;;;21.89;49.57
30744;BME280;17486;46.738;7.622;2022-07-18T05:20:29;95932.50;;;21.97;48.83
30744;BME280;17486;46.738;7.622;2022-07-18T05:22:54;95933.66;;;22.05;47.93
30744;BME280;17486;46.738;7.622;2022-07-18T05:25:21;95931.72;;;22.07;48.16
30744;BME280;17486;46.738;7.622;2022-07-18T05:27:51;95932.16;;;22.12;48.42
30744;BME280;17486;46.738;7.622;2022-07-18T05:30:17;95942.94;;;22.20;47.67
30744;BME280;17486;46.738;7.622;2022-07-18T05:32:43;95940.75;;;22.25;47.41
30744;BME280;17486;46.738;7.622;2022-07-18T05:35:10;95906.38;;;22.14;47.31
30744;BME280;17486;46.738;7.622;2022-07-18T05:37:36;95935.91;;;22.30;47.03
30744;BME280;17486;46.738;7.622;2022-07-18T05:40:03;95892.28;;;22.13;47.00
30744;BME280;17486;46.738;7.622;2022-07-18T05:42:29;95920.47;;;22.35;47.11
30744;BME280;17486;46.738;7.622;2022-07-18T05:44:55;95930.78;;;22.39;47.07
30744;BME280;17486;46.738;7.622;2022-07-18T05:47:20;95926.50;;;22.38;46.93
30744;BME280;17486;46.738;7.622;2022-07-18T05:49:45;95894.56;;;22.18;47.02
30744;BME280;17486;46.738;7.622;2022-07-18T05:52:11;95934.75;;;22.44;47.67
30744;BME280;17486;46.738;7.622;2022-07-18T05:54:36;95920.25;;;22.48;47.74
30744;BME280;17486;46.738;7.622;2022-07-18T05:57:02;95924.16;;;22.54;47.48
30744;BME280;17486;46.738;7.622;2022-07-18T05:59:27;95895.69;;;22.46;47.34
30744;BME280;17486;46.738;7.622;2022-07-18T06:01:53;95916.72;;;22.69;47.32
30744;BME280;17486;46.738;7.622;2022-07-18T06:04:18;95922.75;;;22.81;47.56
30744;BME280;17486;46.738;7.622;2022-07-18T06:06:43;95913.97;;;22.90;47.83
30744;BME280;17486;46.738;7.622;2022-07-18T06:09:10;95878.47;;;22.81;47.92
30744;BME280;17486;46.738;7.622;2022-07-18T06:11:35;95915.28;;;23.15;47.81
30744;BME280;17486;46.738;7.622;2022-07-18T06:14:01;95907.47;;;23.24;47.84
30744;BME280;17486;46.738;7.622;2022-07-18T06:16:28;95904.41;;;23.28;47.81
30744;BME280;17486;46.738;7.622;2022-07-18T06:18:54;95867.09;;;23.20;47.75
30744;BME280;17486;46.738;7.622;2022-07-18T06:21:19;95879.28;;;23.32;47.59
30744;BME280;17486;46.738;7.622;2022-07-18T06:23:45;95872.56;;;23.38;47.63
30744;BME280;17486;46.738;7.622;2022-07-18T06:26:10;95904.97;;;23.61;48.32
30744;BME280;17486;46.738;7.622;2022-07-18T06:28:36;95897.72;;;23.63;48.83
30744;BME280;17486;46.738;7.622;2022-07-18T06:31:01;95894.78;;;23.66;49.02
30744;BME280;17486;46.738;7.622;2022-07-18T06:33:27;95854.81;;;23.48;49.39
30744;BME280;17486;46.738;7.622;2022-07-18T06:35:52;95892.94;;;23.77;49.44
30744;BME280;17486;46.738;7.622;2022-07-18T06:38:18;95888.03;;;23.82;49.29
30744;BME280;17486;46.738;7.622;2022-07-18T06:40:43;95885.66;;;23.89;49.51
30744;BME280;17486;46.738;7.622;2022-07-18T06:43:09;95877.81;;;23.97;49.78
30744;BME280;17486;46.738;7.622;2022-07-18T06:45:35;95883.56;;;24.02;49.66
30744;BME280;17486;46.738;7.622;2022-07-18T06:48:01;95848.34;;;23.90;49.19
30744;BME280;17486;46.738;7.622;2022-07-18T06:50:27;95870.09;;;24.13;49.33
30744;BME280;17486;46.738;7.622;2022-07-18T06:52:53;95870.91;;;24.24;49.33
30744;BME280;17486;46.738;7.622;2022-07-18T06:55:19;95833.88;;;24.12;49.02
30744;BME280;17486;46.738;7.622;2022-07-18T06:57:44;95862.47;;;24.38;48.41
30744;BME280;17486;46.738;7.622;2022-07-18T07:00:12;95870.63;;;24.55;48.38
30744;BME280;17486;46.738;7.622;2022-07-18T07:02:47;95877.97;;;24.71;47.99
30744;BME280;17486;46.738;7.622;2022-07-18T07:05:14;95873.84;;;24.86;47.18
30744;BME280;17486;46.738;7.622;2022-07-18T07:07:40;95875.00;;;25.02;47.36
30744;BME280;17486;46.738;7.622;2022-07-18T07:10:06;95874.34;;;25.17;46.51
30744;BME280;17486;46.738;7.622;2022-07-18T07:12:45;95843.38;;;25.16;46.33
30744;BME280;17486;46.738;7.622;2022-07-18T07:15:11;95832.50;;;25.28;46.18
30744;BME280;17486;46.738;7.622;2022-07-18T07:17:36;95868.94;;;25.63;45.80
30744;BME280;17486;46.738;7.622;2022-07-18T07:20:04;95870.38;;;25.76;45.14
30744;BME280;17486;46.738;7.622;2022-07-18T07:22:31;95834.25;;;25.55;45.03
30744;BME280;17486;46.738;7.622;2022-07-18T07:24:56;95874.69;;;25.77;44.90
30744;BME280;17486;46.738;7.622;2022-07-18T07:27:22;95870.75;;;25.81;44.74
30744;BME280;17486;46.738;7.622;2022-07-18T07:29:47;95834.09;;;25.57;44.00
30744;BME280;17486;46.738;7.622;2022-07-18T07:32:12;95839.78;;;25.62;44.39
30744;BME280;17486;46.738;7.622;2022-07-18T07:34:38;95854.84;;;25.71;44.01
30744;BME280;17486;46.738;7.622;2022-07-18T07:37:03;95876.91;;;25.81;44.31
30744;BME280;17486;46.738;7.622;2022-07-18T07:39:29;95864.28;;;25.84;44.48
30744;BME280;17486;46.738;7.622;2022-07-18T07:41:54;95858.09;;;25.83;44.88
30744;BME280;17486;46.738;7.622;2022-07-18T07:44:20;95863.13;;;25.86;44.81
30744;BME280;17486;46.738;7.622;2022-07-18T07:46:45;95861.97;;;25.89;44.81
30744;BME280;17486;46.738;7.622;2022-07-18T07:49:10;95856.41;;;25.82;44.47
30744;BME280;17486;46.738;7.622;2022-07-18T07:51:36;95838.31;;;25.68;44.09
30744;BME280;17486;46.738;7.622;2022-07-18T07:54:02;95830.81;;;25.63;44.26
30744;BME280;17486;46.738;7.622;2022-07-18T07:56:30;95839.78;;;25.62;44.21
30744;BME280;17486;46.738;7.622;2022-07-18T07:58:56;95829.09;;;25.54;44.49
30744;BME280;17486;46.738;7.622;2022-07-18T08:01:21;95853.69;;;25.74;44.52
30744;BME280;17486;46.738;7.622;2022-07-18T08:03:46;95851.03;;;25.74;44.77
30744;BME280;17486;46.738;7.622;2022-07-18T08:06:14;95821.00;;;25.63;44.97
30744;BME280;17486;46.738;7.622;2022-07-18T08:08:39;95859.97;;;25.91;44.36
30744;BME280;17486;46.738;7.622;2022-07-18T08:11:05;95848.38;;;26.00;43.88
30744;BME280;17486;46.738;7.622;2022-07-18T08:13:31;95853.78;;;26.08;43.39
30744;BME280;17486;46.738;7.622;2022-07-18T08:15:56;95816.34;;;25.92;43.71
30744;BME280;17486;46.738;7.622;2022-07-18T08:18:22;95819.44;;;26.05;43.35
30744;BME280;17486;46.738;7.622;2022-07-18T08:20:47;95845.06;;;26.24;42.63
30744;BME280;17486;46.738;7.622;2022-07-18T08:23:12;95853.13;;;26.41;42.41
30744;BME280;17486;46.738;7.622;2022-07-18T08:25:40;95835.78;;;26.45;42.36
30744;BME280;17486;46.738;7.622;2022-07-18T08:28:07;95838.19;;;26.56;41.41
30744;BME280;17486;46.738;7.622;2022-07-18T08:30:33;95843.91;;;26.70;41.72
30744;BME280;17486;46.738;7.622;2022-07-18T08:33:00;95844.22;;;26.67;41.68
30744;BME280;17486;46.738;7.622;2022-07-18T08:35:30;95850.78;;;26.72;41.34
30744;BME280;17486;46.738;7.622;2022-07-18T08:37:57;95818.19;;;26.60;41.36
30744;BME280;17486;46.738;7.622;2022-07-18T08:40:22;95847.28;;;26.80;41.10
30744;BME280;17486;46.738;7.622;2022-07-18T08:42:50;95813.88;;;26.68;41.06
30744;BME280;17486;46.738;7.622;2022-07-18T08:45:19;95841.31;;;26.86;40.64
30744;BME280;17486;46.738;7.622;2022-07-18T08:47:45;95833.66;;;27.00;40.34
30744;BME280;17486;46.738;7.622;2022-07-18T08:50:11;95830.00;;;27.01;39.92
30744;BME280;17486;46.738;7.622;2022-07-18T08:52:36;95792.09;;;26.89;40.79
30744;BME280;17486;46.738;7.622;2022-07-18T08:55:05;95828.03;;;27.19;40.67
30744;BME280;17486;46.738;7.622;2022-07-18T08:57:32;95834.03;;;27.29;40.44
30744;BME280;17486;46.738;7.622;2022-07-18T08:59:57;95829.03;;;27.35;39.87
30744;BME280;17486;46.738;7.622;2022-07-18T09:02:26;95823.88;;;27.33;39.44
30744;BME280;17486;46.738;7.622;2022-07-18T09:04:52;95794.47;;;27.25;39.84
30744;BME280;17486;46.738;7.622;2022-07-18T09:07:27;95832.75;;;27.50;39.67
30744;BME280;17486;46.738;7.622;2022-07-18T09:10:00;95829.91;;;27.60;39.03
30744;BME280;17486;46.738;7.622;2022-07-18T09:12:28;95817.38;;;27.69;39.18
30744;BME280;17486;46.738;7.622;2022-07-18T09:14:54;95819.00;;;27.86;38.77
30744;BME280;17486;46.738;7.622;2022-07-18T09:17:27;95819.34;;;28.08;39.02
30744;BME280;17486;46.738;7.622;2022-07-18T09:22:25;95824.19;;;28.52;37.62
30744;BME280;17486;46.738;7.622;2022-07-18T09:24:53;95823.47;;;28.58;36.93
30744;BME280;17486;46.738;7.622;2022-07-18T09:27:28;95785.06;;;28.51;36.29
30744;BME280;17486;46.738;7.622;2022-07-18T09:32:49;95792.00;;;28.77;35.20
30744;BME280;17486;46.738;7.622;2022-07-18T09:35:22;95813.59;;;28.99;35.21
30744;BME280;17486;46.738;7.622;2022-07-18T09:37:58;95813.84;;;29.12;35.22
30744;BME280;17486;46.738;7.622;2022-07-18T09:40:27;95803.25;;;29.19;34.91
30744;BME280;17486;46.738;7.622;2022-07-18T09:42:55;95803.13;;;29.12;35.03
30744;BME280;17486;46.738;7.622;2022-07-18T09:45:23;95813.84;;;29.12;34.81
30744;BME280;17486;46.738;7.622;2022-07-18T09:47:54;95786.69;;;28.92;34.63
30744;BME280;17486;46.738;7.622;2022-07-18T09:50:32;95807.53;;;29.05;34.92
30744;BME280;17486;46.738;7.622;2022-07-18T09:53:01;95803.19;;;29.04;35.06
30744;BME280;17486;46.738;7.622;2022-07-18T09:55:27;95781.34;;;28.92;34.83
30744;BME280;17486;46.738;7.622;2022-07-18T09:58:01;95810.16;;;29.13;34.70
30744;BME280;17486;46.738;7.622;2022-07-18T10:00:32;95801.47;;;29.11;35.00
30744;BME280;17486;46.738;7.622;2022-07-18T10:02:58;95803.44;;;29.17;34.90
30744;BME280;17486;46.738;7.622;2022-07-18T10:05:26;95781.75;;;29.04;34.70
30744;BME280;17486;46.738;7.622;2022-07-18T10:07:53;95774.03;;;29.09;34.38
30744;BME280;17486;46.738;7.622;2022-07-18T10:10:19;95788.97;;;29.26;34.81
30744;BME280;17486;46.738;7.622;2022-07-18T10:12:44;95797.31;;;29.32;34.47
30744;BME280;17486;46.738;7.622;2022-07-18T10:15:10;95765.22;;;29.23;35.09
30744;BME280;17486;46.738;7.622;2022-07-18T10:17:36;95797.50;;;29.53;34.99
30744;BME280;17486;46.738;7.622;2022-07-18T10:20:05;95764.03;;;29.64;34.34
30744;BME280;17486;46.738;7.622;2022-07-18T10:22:39;95797.28;;;30.08;33.49
30744;BME280;17486;46.738;7.622;2022-07-18T10:25:12;95779.72;;;30.20;33.75
30744;BME280;17486;46.738;7.622;2022-07-18T10:27:52;95803.31;;;30.40;32.59
30744;BME280;17486;46.738;7.622;2022-07-18T10:30:30;95788.69;;;30.57;32.39
30744;BME280;17486;46.738;7.622;2022-07-18T10:32:57;95788.28;;;30.75;32.31
30744;BME280;17486;46.738;7.622;2022-07-18T10:35:58;95782.09;;;30.97;32.19
30744;BME280;17486;46.738;7.622;2022-07-18T10:38:23;95779.16;;;31.06;32.17
30744;BME280;17486;46.738;7.622;2022-07-18T10:41:09;95752.53;;;31.12;32.40
30744;BME280;17486;46.738;7.622;2022-07-18T10:43:41;95767.00;;;31.39;32.12
30744;BME280;17486;46.738;7.622;2022-07-18T10:46:07;95775.06;;;31.61;31.74
30744;BME280;17486;46.738;7.622;2022-07-18T10:51:14;95748.56;;;31.57;31.20
30744;BME280;17486;46.738;7.622;2022-07-18T10:56:18;95766.69;;;31.49;31.64
30744;BME280;17486;46.738;7.622;2022-07-18T10:58:44;95764.78;;;31.42;31.46
30744;BME280;17486;46.738;7.622;2022-07-18T11:01:16;95762.22;;;31.34;31.93
30744;BME280;17486;46.738;7.622;2022-07-18T11:03:43;95764.09;;;31.34;32.59
30744;BME280;17486;46.738;7.622;2022-07-18T11:06:09;95734.53;;;31.12;31.84
30744;BME280;17486;46.738;7.622;2022-07-18T11:08:34;95726.22;;;31.07;31.88
30744;BME280;17486;46.738;7.622;2022-07-18T11:11:08;95767.56;;;31.28;31.68
30744;BME280;17486;46.738;7.622;2022-07-18T11:13:38;95758.06;;;31.32;32.08
30744;BME280;17486;46.738;7.622;2022-07-18T11:16:20;95749.19;;;31.31;31.64
30744;BME280;17486;46.738;7.622;2022-07-18T11:21:16;95755.88;;;31.42;31.17
30744;BME280;17486;46.738;7.622;2022-07-18T11:23:45;95746.00;;;31.49;30.65
30744;BME280;17486;46.738;7.622;2022-07-18T11:26:20;95744.81;;;31.58;30.50
30744;BME280;17486;46.738;7.622;2022-07-18T11:28:46;95742.41;;;31.64;29.95
30744;BME280;17486;46.738;7.622;2022-07-18T11:31:14;95716.81;;;31.68;30.45
30744;BME280;17486;46.738;7.622;2022-07-18T11:33:44;95713.38;;;31.87;29.38
30744;BME280;17486;46.738;7.622;2022-07-18T11:36:12;95740.53;;;32.28;28.48
30744;BME280;17486;46.738;7.622;2022-07-18T11:38:46;95737.91;;;32.41;29.15
30744;BME280;17486;46.738;7.622;2022-07-18T11:41:11;95736.75;;;32.64;28.54
30744;BME280;17486;46.738;7.622;2022-07-18T11:43:37;95698.81;;;32.59;27.09
30744;BME280;17486;46.738;7.622;2022-07-18T11:46:05;95726.06;;;32.90;26.71
30744;BME280;17486;46.738;7.622;2022-07-18T11:48:32;95727.13;;;33.03;26.47
30744;BME280;17486;46.738;7.622;2022-07-18T11:50:58;95698.50;;;33.15;25.53
30744;BME280;17486;46.738;7.622;2022-07-18T11:53:24;95713.28;;;33.46;24.77
30744;BME280;17486;46.738;7.622;2022-07-18T11:55:49;95690.03;;;33.52;24.26
30744;BME280;17486;46.738;7.622;2022-07-18T11:58:16;95690.66;;;33.54;24.89
30744;BME280;17486;46.738;7.622;2022-07-18T12:00:43;95709.50;;;33.74;24.94
30744;BME280;17486;46.738;7.622;2022-07-18T12:03:16;95709.72;;;33.86;24.62
30744;BME280;17486;46.738;7.622;2022-07-18T12:08:32;95709.44;;;34.08;23.37
30744;BME280;17486;46.738;7.622;2022-07-18T12:11:03;95697.38;;;34.10;23.10
30744;BME280;17486;46.738;7.622;2022-07-18T12:13:42;95707.91;;;34.25;23.09
30744;BME280;17486;46.738;7.622;2022-07-18T12:16:08;95715.19;;;34.31;22.30
30744;BME280;17486;46.738;7.622;2022-07-18T12:18:34;95700.25;;;34.22;22.07
30744;BME280;17486;46.738;7.622;2022-07-18T12:21:09;95673.97;;;33.97;22.02
30744;BME280;17486;46.738;7.622;2022-07-18T12:23:34;95696.78;;;34.01;22.57
30744;BME280;17486;46.738;7.622;2022-07-18T12:26:00;95692.91;;;33.91;22.97
30744;BME280;17486;46.738;7.622;2022-07-18T12:28:27;95670.50;;;33.70;23.17
30744;BME280;17486;46.738;7.622;2022-07-18T12:30:53;95687.25;;;33.79;23.38
30744;BME280;17486;46.738;7.622;2022-07-18T12:33:19;95683.53;;;33.86;23.85
30744;BME280;17486;46.738;7.622;2022-07-18T12:35:45;95687.69;;;33.82;23.70
30744;BME280;17486;46.738;7.622;2022-07-18T12:38:15;95665.50;;;33.74;24.43
30744;BME280;17486;46.738;7.622;2022-07-18T12:40:48;95669.25;;;33.66;23.81
30744;BME280;17486;46.738;7.622;2022-07-18T12:43:16;95644.34;;;33.64;22.93
30744;BME280;17486;46.738;7.622;2022-07-18T12:45:46;95681.28;;;33.83;23.00
30744;BME280;17486;46.738;7.622;2022-07-18T12:48:12;95638.53;;;33.74;23.74
30744;BME280;17486;46.738;7.622;2022-07-18T12:50:39;95671.66;;;34.01;24.26
30744;BME280;17486;46.738;7.622;2022-07-18T12:53:05;95666.50;;;33.93;22.89
30744;BME280;17486;46.738;7.622;2022-07-18T12:55:30;95671.25;;;34.04;23.21
30744;BME280;17486;46.738;7.622;2022-07-18T12:57:56;95631.56;;;34.04;22.92
30744;BME280;17486;46.738;7.622;2022-07-18T13:00:21;95645.38;;;34.35;23.11
30744;BME280;17486;46.738;7.622;2022-07-18T13:02:47;95654.50;;;34.73;23.14
30744;BME280;17486;46.738;7.622;2022-07-18T13:05:12;95665.00;;;34.94;23.26
30744;BME280;17486;46.738;7.622;2022-07-18T13:07:38;95660.06;;;35.10;23.18
30744;BME280;17486;46.738;7.622;2022-07-18T13:10:04;95652.16;;;35.40;22.48
30744;BME280;17486;46.738;7.622;2022-07-18T13:12:30;95624.88;;;35.42;22.80
30744;BME280;17486;46.738;7.622;2022-07-18T13:14:55;95647.31;;;35.67;22.42